sensor_id;sensor_type;location;lat;lon;timestamp;temperature;humidity
10386;DHT22;34307;51.332;12.334;2022-08-03T00:01:55;19.20;99.90
10386;DHT22;34307;51.332;12.334;2022-08-03T00:04:51;19.20;99.90
10386;DHT22;34307;51.332;12.334;2022-08-03T00:07:42;19.20;99.90
10386;DHT22;34307;51.332;12.334;2022-08-03T00:10:41;19.10;99.90
10386;DHT22;34307;51.332;12.334;2022-08-03T00:13:37;19.10;99.90
10386;DHT22;34307;51.332;12.334;2022-08-03T00:16:45;19.20;99.90
10386;DHT22;34307;51.332;12.334;2022-08-03T00:19:24;19.30;99.90
10386;DHT22;34307;51.332;12.334;2022-08-03T00:22:28;19.20;99.90
10386;DHT22;34307;51.332;12.334;2022-08-03T00:25:43;19.00;99.90
10386;DHT22;34307;51.332;12.334;2022-08-03T00:59:47;18.80;99.90
10386;DHT22;34307;51.332;12.334;2022-08-03T01:18:37;18.70;99.90
10386;DHT22;34307;51.332;12.334;2022-08-03T01:22:09;18.60;99.90
10386;DHT22;34307;51.332;12.334;2022-08-03T01:25:58;18.60;99.90
10386;DHT22;34307;51.332;12.334;2022-08-03T01:40:44;18.80;99.90
10386;DHT22;34307;51.332;12.334;2022-08-03T01:44:17;18.70;99.90
10386;DHT22;34307;51.332;12.334;2022-08-03T01:52:06;18.80;99.90
10386;DHT22;34307;51.332;12.334;2022-08-03T02:37:04;18.20;99.90
10386;DHT22;34307;51.332;12.334;2022-08-03T02:40:33;18.20;99.90
10386;DHT22;34307;51.332;12.334;2022-08-03T03:08:48;17.90;99.90
10386;DHT22;34307;51.332;12.334;2022-08-03T03:16:54;17.80;99.90
10386;DHT22;34307;51.332;12.334;2022-08-03T03:45:01;17.60;99.90
10386;DHT22;34307;51.332;12.334;2022-08-03T07:38:15;23.60;42.40
10386;DHT22;34307;51.332;12.334;2022-08-03T08:05:52;24.80;38.40
10386;DHT22;34307;51.332;12.334;2022-08-03T08:09:23;24.90;37.60
10386;DHT22;34307;51.332;12.334;2022-08-03T08:12:56;25.00;40.80
10386;DHT22;34307;51.332;12.334;2022-08-03T08:15:43;25.20;42.00
10386;DHT22;34307;51.332;12.334;2022-08-03T08:22:06;25.50;42.70
10386;DHT22;34307;51.332;12.334;2022-08-03T08:25:13;25.80;35.40
10386;DHT22;34307;51.332;12.334;2022-08-03T08:29:19;26.00;26.90
10386;DHT22;34307;51.332;12.334;2022-08-03T08:36:22;26.50;18.30
10386;DHT22;34307;51.332;12.334;2022-08-03T08:54:19;28.30;1.00
10386;DHT22;34307;51.332;12.334;2022-08-03T09:00:27;28.50;1.00
10386;DHT22;34307;51.332;12.334;2022-08-03T09:03:52;28.60;1.00
10386;DHT22;34307;51.332;12.334;2022-08-03T09:07:28;28.70;1.00
10386;DHT22;34307;51.332;12.334;2022-08-03T09:14:46;29.40;1.00
10386;DHT22;34307;51.332;12.334;2022-08-03T09:24:25;29.40;1.00
10386;DHT22;34307;51.332;12.334;2022-08-03T09:43:27;30.20;1.00
10386;DHT22;34307;51.332;12.334;2022-08-03T09:46:07;30.30;1.00
10386;DHT22;34307;51.332;12.334;2022-08-03T09:48:51;30.00;1.00
10386;DHT22;34307;51.332;12.334;2022-08-03T09:51:41;30.20;1.00
10386;DHT22;34307;51.332;12.334;2022-08-03T09:54:49;30.50;1.00
10386;DHT22;34307;51.332;12.334;2022-08-03T09:58:43;30.20;1.00
10386;DHT22;34307;51.332;12.334;2022-08-03T10:01:52;30.00;1.00
10386;DHT22;34307;51.332;12.334;2022-08-03T10:04:29;30.30;1.00
10386;DHT22;34307;51.332;12.334;2022-08-03T10:07:07;30.20;1.00
10386;DHT22;34307;51.332;12.334;2022-08-03T10:09:39;30.60;1.00
10386;DHT22;34307;51.332;12.334;2022-08-03T10:12:20;30.90;1.00
10386;DHT22;34307;51.332;12.334;2022-08-03T10:14:54;31.20;1.00
10386;DHT22;34307;51.332;12.334;2022-08-03T10:17:32;31.30;1.00
10386;DHT22;34307;51.332;12.334;2022-08-03T10:20:35;31.00;1.00
10386;DHT22;34307;51.332;12.334;2022-08-03T10:23:44;30.60;1.00
10386;DHT22;34307;51.332;12.334;2022-08-03T10:26:40;31.00;1.00
10386;DHT22;34307;51.332;12.334;2022-08-03T10:29:21;31.40;1.00
10386;DHT22;34307;51.332;12.334;2022-08-03T10:31:58;31.40;1.00
10386;DHT22;34307;51.332;12.334;2022-08-03T10:34:33;31.70;1.00
10386;DHT22;34307;51.332;12.334;2022-08-03T10:37:11;31.50;1.00
10386;DHT22;34307;51.332;12.334;2022-08-03T10:39:52;31.70;1.00
10386;DHT22;34307;51.332;12.334;2022-08-03T10:42:22;31.60;1.00
10386;DHT22;34307;51.332;12.334;2022-08-03T10:44:55;31.30;1.00
10386;DHT22;34307;51.332;12.334;2022-08-03T10:47:29;31.50;1.00
10386;DHT22;34307;51.332;12.334;2022-08-03T10:50:02;31.60;1.00
10386;DHT22;34307;51.332;12.334;2022-08-03T10:52:31;31.50;1.00
10386;DHT22;34307;51.332;12.334;2022-08-03T10:55:28;31.60;1.00
10386;DHT22;34307;51.332;12.334;2022-08-03T10:58:14;31.90;1.00
10386;DHT22;34307;51.332;12.334;2022-08-03T11:01:01;32.30;1.00
10386;DHT22;34307;51.332;12.334;2022-08-03T11:04:13;32.60;1.00
10386;DHT22;34307;51.332;12.334;2022-08-03T11:06:46;32.80;1.00
10386;DHT22;34307;51.332;12.334;2022-08-03T11:09:17;32.80;1.00
10386;DHT22;34307;51.332;12.334;2022-08-03T11:11:47;32.80;1.00
10386;DHT22;34307;51.332;12.334;2022-08-03T11:14:25;33.00;1.00
10386;DHT22;34307;51.332;12.334;2022-08-03T11:17:06;33.20;1.00
10386;DHT22;34307;51.332;12.334;2022-08-03T11:19:45;32.90;1.00
10386;DHT22;34307;51.332;12.334;2022-08-03T11:22:46;33.00;1.00
10386;DHT22;34307;51.332;12.334;2022-08-03T11:25:21;33.10;1.00
10386;DHT22;34307;51.332;12.334;2022-08-03T11:28:33;32.80;1.00
10386;DHT22;34307;51.332;12.334;2022-08-03T11:34:21;33.40;1.00
10386;DHT22;34307;51.332;12.334;2022-08-03T11:37:23;33.80;1.00
10386;DHT22;34307;51.332;12.334;2022-08-03T11:39:59;34.30;1.00
10386;DHT22;34307;51.332;12.334;2022-08-03T11:42:42;34.70;1.00
10386;DHT22;34307;51.332;12.334;2022-08-03T11:45:13;34.80;1.00
10386;DHT22;34307;51.332;12.334;2022-08-03T11:47:44;34.60;1.00
10386;DHT22;34307;51.332;12.334;2022-08-03T11:50:17;34.40;1.00
10386;DHT22;34307;51.332;12.334;2022-08-03T11:52:47;34.00;1.00
10386;DHT22;34307;51.332;12.334;2022-08-03T11:55:18;34.10;1.00
10386;DHT22;34307;51.332;12.334;2022-08-03T11:57:48;34.20;1.00
10386;DHT22;34307;51.332;12.334;2022-08-03T12:00:38;33.80;1.00
10386;DHT22;34307;51.332;12.334;2022-08-03T12:03:09;33.40;1.00
10386;DHT22;34307;51.332;12.334;2022-08-03T12:05:44;33.80;1.00
10386;DHT22;34307;51.332;12.334;2022-08-03T12:08:30;34.70;1.00
10386;DHT22;34307;51.332;12.334;2022-08-03T12:11:00;34.90;1.00
10386;DHT22;34307;51.332;12.334;2022-08-03T12:13:41;35.20;1.00
10386;DHT22;34307;51.332;12.334;2022-08-03T12:16:30;35.50;1.00
10386;DHT22;34307;51.332;12.334;2022-08-03T12:19:00;35.80;1.00
10386;DHT22;34307;51.332;12.334;2022-08-03T12:21:32;35.70;1.00
10386;DHT22;34307;51.332;12.334;2022-08-03T12:24:04;36.10;1.00
10386;DHT22;34307;51.332;12.334;2022-08-03T12:26:42;36.30;1.00
10386;DHT22;34307;51.332;12.334;2022-08-03T12:29:25;36.60;1.00
10386;DHT22;34307;51.332;12.334;2022-08-03T12:31:54;36.30;1.00
10386;DHT22;34307;51.332;12.334;2022-08-03T12:34:22;36.40;1.00
10386;DHT22;34307;51.332;12.334;2022-08-03T12:36:56;36.70;1.00
10386;DHT22;34307;51.332;12.334;2022-08-03T12:39:27;36.60;1.00
10386;DHT22;34307;51.332;12.334;2022-08-03T12:41:57;37.10;1.00
10386;DHT22;34307;51.332;12.334;2022-08-03T12:44:30;37.10;1.00
10386;DHT22;34307;51.332;12.334;2022-08-03T12:46:59;37.80;1.00
10386;DHT22;34307;51.332;12.334;2022-08-03T12:49:46;37.30;1.00
10386;DHT22;34307;51.332;12.334;2022-08-03T12:54:52;37.30;1.00
10386;DHT22;34307;51.332;12.334;2022-08-03T13:00:10;38.50;1.00
10386;DHT22;34307;51.332;12.334;2022-08-03T13:02:58;39.10;1.00
10386;DHT22;34307;51.332;12.334;2022-08-03T13:05:46;39.10;1.00
10386;DHT22;34307;51.332;12.334;2022-08-03T13:08:18;38.90;1.00
10386;DHT22;34307;51.332;12.334;2022-08-03T13:10:47;39.10;1.00
10386;DHT22;34307;51.332;12.334;2022-08-03T13:13:15;39.40;1.00
10386;DHT22;34307;51.332;12.334;2022-08-03T13:15:48;39.40;1.00
10386;DHT22;34307;51.332;12.334;2022-08-03T13:18:16;39.30;1.00
10386;DHT22;34307;51.332;12.334;2022-08-03T13:20:47;37.40;1.00
10386;DHT22;34307;51.332;12.334;2022-08-03T13:23:15;36.10;1.00
10386;DHT22;34307;51.332;12.334;2022-08-03T13:25:48;35.80;1.00
10386;DHT22;34307;51.332;12.334;2022-08-03T13:28:22;36.00;1.00
10386;DHT22;34307;51.332;12.334;2022-08-03T13:30:51;37.90;1.00
10386;DHT22;34307;51.332;12.334;2022-08-03T13:33:20;37.80;1.00
10386;DHT22;34307;51.332;12.334;2022-08-03T13:35:48;37.20;1.00
10386;DHT22;34307;51.332;12.334;2022-08-03T13:38:16;37.10;1.00
10386;DHT22;34307;51.332;12.334;2022-08-03T13:40:47;37.10;1.00
10386;DHT22;34307;51.332;12.334;2022-08-03T13:43:15;36.50;1.00
10386;DHT22;34307;51.332;12.334;2022-08-03T13:45:43;37.80;1.00
10386;DHT22;34307;51.332;12.334;2022-08-03T13:48:20;38.20;1.00
10386;DHT22;34307;51.332;12.334;2022-08-03T13:51:03;38.50;1.00
10386;DHT22;34307;51.332;12.334;2022-08-03T13:53:48;39.00;1.00
10386;DHT22;34307;51.332;12.334;2022-08-03T13:56:16;40.10;1.00
10386;DHT22;34307;51.332;12.334;2022-08-03T13:58:45;40.80;1.00
10386;DHT22;34307;51.332;12.334;2022-08-03T14:01:15;40.80;1.00
10386;DHT22;34307;51.332;12.334;2022-08-03T14:04:04;40.70;1.00
10386;DHT22;34307;51.332;12.334;2022-08-03T14:06:52;40.60;1.00
10386;DHT22;34307;51.332;12.334;2022-08-03T14:09:20;40.70;1.00
10386;DHT22;34307;51.332;12.334;2022-08-03T14:11:51;40.80;1.00
10386;DHT22;34307;51.332;12.334;2022-08-03T14:14:37;41.30;1.00
10386;DHT22;34307;51.332;12.334;2022-08-03T14:17:09;40.70;1.00
10386;DHT22;34307;51.332;12.334;2022-08-03T14:19:50;40.30;1.00
10386;DHT22;34307;51.332;12.334;2022-08-03T15:24:56;40.90;1.00
10386;DHT22;34307;51.332;12.334;2022-08-03T15:32:04;40.70;1.00
10386;DHT22;34307;51.332;12.334;2022-08-03T15:46:29;43.50;1.00
10386;DHT22;34307;51.332;12.334;2022-08-03T15:54:45;42.50;1.00
10386;DHT22;34307;51.332;12.334;2022-08-03T16:01:51;39.70;1.00
10386;DHT22;34307;51.332;12.334;2022-08-03T16:09:13;36.70;1.00
10386;DHT22;34307;51.332;12.334;2022-08-03T16:23:22;38.00;1.00
10386;DHT22;34307;51.332;12.334;2022-08-03T16:26:32;38.60;1.00
10386;DHT22;34307;51.332;12.334;2022-08-03T16:29:39;39.30;1.00
10386;DHT22;34307;51.332;12.334;2022-08-03T17:02:47;40.50;1.00
10386;DHT22;34307;51.332;12.334;2022-08-03T17:14:56;41.50;1.00
10386;DHT22;34307;51.332;12.334;2022-08-03T17:40:40;41.40;1.00
10386;DHT22;34307;51.332;12.334;2022-08-03T17:43:43;41.20;1.00
10386;DHT22;34307;51.332;12.334;2022-08-03T17:46:33;40.80;1.00
10386;DHT22;34307;51.332;12.334;2022-08-03T17:49:39;40.70;1.00
10386;DHT22;34307;51.332;12.334;2022-08-03T17:56:38;39.50;1.00
10386;DHT22;34307;51.332;12.334;2022-08-03T17:59:33;39.20;1.00
10386;DHT22;34307;51.332;12.334;2022-08-03T18:02:36;38.60;1.00
10386;DHT22;34307;51.332;12.334;2022-08-03T18:09:06;37.30;1.00
10386;DHT22;34307;51.332;12.334;2022-08-03T18:12:42;37.00;1.00
10386;DHT22;34307;51.332;12.334;2022-08-03T18:28:16;36.00;1.00
10386;DHT22;34307;51.332;12.334;2022-08-03T18:31:14;35.60;1.00
10386;DHT22;34307;51.332;12.334;2022-08-03T18:34:07;35.00;1.00
10386;DHT22;34307;51.332;12.334;2022-08-03T18:36:58;34.30;1.00
10386;DHT22;34307;51.332;12.334;2022-08-03T18:51:16;31.60;1.00
10386;DHT22;34307;51.332;12.334;2022-08-03T18:54:46;31.20;1.00
10386;DHT22;34307;51.332;12.334;2022-08-03T19:15:15;29.50;1.00
10386;DHT22;34307;51.332;12.334;2022-08-03T19:18:22;29.30;1.00
10386;DHT22;34307;51.332;12.334;2022-08-03T19:47:59;28.00;1.00
10386;DHT22;34307;51.332;12.334;2022-08-03T19:51:21;27.90;1.00
10386;DHT22;34307;51.332;12.334;2022-08-03T19:54:47;27.70;1.00
10386;DHT22;34307;51.332;12.334;2022-08-03T19:57:41;27.60;1.00
10386;DHT22;34307;51.332;12.334;2022-08-03T20:00:51;27.50;1.00
10386;DHT22;34307;51.332;12.334;2022-08-03T20:03:58;27.50;1.00
10386;DHT22;34307;51.332;12.334;2022-08-03T20:17:18;27.10;1.00
10386;DHT22;34307;51.332;12.334;2022-08-03T20:20:26;27.00;1.00
10386;DHT22;34307;51.332;12.334;2022-08-03T20:27:29;26.80;1.00
10386;DHT22;34307;51.332;12.334;2022-08-03T20:31:27;26.70;1.00
10386;DHT22;34307;51.332;12.334;2022-08-03T20:42:03;26.40;1.00
10386;DHT22;34307;51.332;12.334;2022-08-03T20:44:57;26.30;1.00
10386;DHT22;34307;51.332;12.334;2022-08-03T20:48:16;26.20;1.00
10386;DHT22;34307;51.332;12.334;2022-08-03T20:51:17;26.20;1.00
10386;DHT22;34307;51.332;12.334;2022-08-03T20:54:41;26.00;1.00
10386;DHT22;34307;51.332;12.334;2022-08-03T20:57:33;26.00;1.00
10386;DHT22;34307;51.332;12.334;2022-08-03T21:00:07;25.90;1.00
10386;DHT22;34307;51.332;12.334;2022-08-03T21:02:38;25.80;1.00
10386;DHT22;34307;51.332;12.334;2022-08-03T21:05:11;25.70;1.00
10386;DHT22;34307;51.332;12.334;2022-08-03T21:07:53;25.50;1.00
10386;DHT22;34307;51.332;12.334;2022-08-03T21:10:49;25.40;1.00
10386;DHT22;34307;51.332;12.334;2022-08-03T21:13:50;25.30;1.00
10386;DHT22;34307;51.332;12.334;2022-08-03T21:16:33;25.10;1.00
10386;DHT22;34307;51.332;12.334;2022-08-03T21:35:36;24.50;1.00
10386;DHT22;34307;51.332;12.334;2022-08-03T21:40:22;24.50;1.00
10386;DHT22;34307;51.332;12.334;2022-08-03T21:50:51;24.20;1.00
10386;DHT22;34307;51.332;12.334;2022-08-03T21:57:12;24.10;3.30
10386;DHT22;34307;51.332;12.334;2022-08-03T22:00:05;24.10;1.00
10386;DHT22;34307;51.332;12.334;2022-08-03T22:03:20;24.10;1.00
10386;DHT22;34307;51.332;12.334;2022-08-03T22:06:56;24.10;1.00
10386;DHT22;34307;51.332;12.334;2022-08-03T22:13:28;23.90;1.00
10386;DHT22;34307;51.332;12.334;2022-08-03T22:19:45;23.80;1.00
10386;DHT22;34307;51.332;12.334;2022-08-03T22:23:02;23.80;1.00
10386;DHT22;34307;51.332;12.334;2022-08-03T22:26:14;23.80;1.00
10386;DHT22;34307;51.332;12.334;2022-08-03T22:29:26;23.70;1.00
10386;DHT22;34307;51.332;12.334;2022-08-03T22:32:58;23.70;7.30
10386;DHT22;34307;51.332;12.334;2022-08-03T22:36:23;23.60;15.20
10386;DHT22;34307;51.332;12.334;2022-08-03T22:39:29;23.60;19.00
10386;DHT22;34307;51.332;12.334;2022-08-03T22:42:32;23.50;23.20
10386;DHT22;34307;51.332;12.334;2022-08-03T22:46:00;23.40;26.30
10386;DHT22;34307;51.332;12.334;2022-08-03T22:49:07;23.40;30.10
10386;DHT22;34307;51.332;12.334;2022-08-03T22:52:00;23.30;34.40
10386;DHT22;34307;51.332;12.334;2022-08-03T22:55:10;23.20;35.90
10386;DHT22;34307;51.332;12.334;2022-08-03T22:58:16;23.10;37.40
10386;DHT22;34307;51.332;12.334;2022-08-03T23:01:24;23.10;39.90
10386;DHT22;34307;51.332;12.334;2022-08-03T23:04:07;23.10;39.00
10386;DHT22;34307;51.332;12.334;2022-08-03T23:06:48;23.00;41.20
10386;DHT22;34307;51.332;12.334;2022-08-03T23:09:22;23.00;42.30
10386;DHT22;34307;51.332;12.334;2022-08-03T23:12:28;22.90;41.70
10386;DHT22;34307;51.332;12.334;2022-08-03T23:15:10;22.90;41.60
10386;DHT22;34307;51.332;12.334;2022-08-03T23:18:05;22.90;42.50
10386;DHT22;34307;51.332;12.334;2022-08-03T23:21:20;22.80;42.10
10386;DHT22;34307;51.332;12.334;2022-08-03T23:31:52;22.60;43.00
10386;DHT22;34307;51.332;12.334;2022-08-03T23:34:22;22.60;43.30
10386;DHT22;34307;51.332;12.334;2022-08-03T23:37:14;22.70;42.90
10386;DHT22;34307;51.332;12.334;2022-08-03T23:39:47;22.60;43.30
10386;DHT22;34307;51.332;12.334;2022-08-03T23:42:18;22.60;43.40
10386;DHT22;34307;51.332;12.334;2022-08-03T23:44:52;22.60;42.70
10386;DHT22;34307;51.332;12.334;2022-08-03T23:47:35;22.60;43.70
10386;DHT22;34307;51.332;12.334;2022-08-03T23:50:21;22.50;42.90
10386;DHT22;34307;51.332;12.334;2022-08-03T23:53:37;22.60;42.40
10386;DHT22;34307;51.332;12.334;2022-08-03T23:56:34;22.50;42.50
10386;DHT22;34307;51.332;12.334;2022-08-03T23:59:23;22.60;44.20
